createdAt,value
2023-05-05T00:00:25.135Z,72.7728
2023-05-05T00:01:33.511Z,72.8358
2023-05-05T00:02:41.534Z,72.5616
2023-05-05T00:03:49.629Z,72.6982
2023-05-05T00:04:57.613Z,73.2242
2023-05-05T00:06:05.649Z,73.0152
2023-05-05T00:07:13.661Z,72.9398
2023-05-05T00:08:21.754Z,73.0401
2023-05-05T00:09:29.757Z,72.8947
2023-05-05T00:10:37.860Z,73.5792
2023-05-05T00:11:45.892Z,73.7843
2023-05-05T00:12:53.851Z,74.1355
2023-05-05T00:14:01.885Z,73.8775
2023-05-05T00:15:09.916Z,74.1034
2023-05-05T00:16:18.103Z,74.2821
2023-05-05T00:17:26.299Z,73.9767
2023-05-05T00:18:34.252Z,74.2212
2023-05-05T00:19:42.343Z,74.3693
2023-05-05T00:20:50.368Z,74.3968
2023-05-05T00:21:58.400Z,74.4317
2023-05-05T00:23:06.472Z,73.9619
2023-05-05T00:24:14.711Z,73.0932
2023-05-05T00:25:22.644Z,73.1838
2023-05-05T00:26:30.606Z,72.5237
2023-05-05T00:27:40.236Z,72.2918
2023-05-05T00:28:51.488Z,72.0006
2023-05-05T00:29:59.832Z,72.0239
2023-05-05T00:31:07.865Z,72.4384
2023-05-05T00:32:15.824Z,73.1260
2023-05-05T00:33:23.919Z,73.3587
2023-05-05T00:34:31.955Z,74.3907
2023-05-05T00:35:39.976Z,74.1209
2023-05-05T00:36:48.061Z,74.1534
2023-05-05T00:37:56.157Z,74.5703
2023-05-05T00:39:04.234Z,74.8348
2023-05-05T00:40:12.246Z,74.6518
2023-05-05T00:41:20.171Z,74.6227
2023-05-05T00:42:28.217Z,74.7707
2023-05-05T00:43:36.273Z,74.5704
2023-05-05T00:44:44.715Z,75.3389
2023-05-05T00:45:52.520Z,75.0286
2023-05-05T00:47:00.770Z,74.6809
2023-05-05T00:48:08.796Z,74.8324
2023-05-05T00:49:16.851Z,75.1465
2023-05-05T00:50:24.773Z,74.7470
2023-05-05T00:51:32.852Z,75.2041
2023-05-05T00:52:40.996Z,74.4499
2023-05-05T00:53:48.990Z,74.8154
2023-05-05T00:54:57.053Z,74.6700
2023-05-05T00:56:04.960Z,74.7822
2023-05-05T00:57:13.029Z,75.6931
2023-05-05T00:58:21.100Z,76.7437
2023-05-05T00:59:29.305Z,78.3251
2023-05-05T01:00:37.334Z,78.5387
2023-05-05T01:01:45.399Z,78.4378
2023-05-05T01:02:53.588Z,77.6483
2023-05-05T01:04:01.742Z,77.2780
2023-05-05T01:05:09.585Z,77.1552
2023-05-05T01:06:17.677Z,77.5652
2023-05-05T01:07:25.695Z,77.4431
2023-05-05T01:08:33.779Z,77.1545
2023-05-05T01:09:41.869Z,77.7607
2023-05-05T01:10:49.756Z,78.0272
2023-05-05T01:11:57.813Z,78.0490
2023-05-05T01:13:05.961Z,77.6226
2023-05-05T01:14:14.087Z,77.4991
2023-05-05T01:15:22.139Z,77.5784
2023-05-05T01:16:30.199Z,77.2456
2023-05-05T01:17:38.309Z,77.3933
2023-05-05T01:18:46.319Z,77.1181
2023-05-05T01:19:54.611Z,76.9913
2023-05-05T01:21:02.508Z,76.9847
2023-05-05T01:22:10.631Z,77.0544
2023-05-05T01:23:18.628Z,77.2576
2023-05-05T01:24:26.771Z,77.1233
2023-05-05T01:25:34.618Z,77.4036
2023-05-05T01:26:42.680Z,77.5563
2023-05-05T01:27:50.721Z,77.7666
2023-05-05T01:28:58.945Z,78.6276
2023-05-05T01:30:07.304Z,79.2122
2023-05-05T01:31:15.080Z,79.4676
2023-05-05T01:32:23.114Z,79.4089
2023-05-05T01:33:31.151Z,79.3369
2023-05-05T01:34:39.207Z,80.0249
2023-05-05T01:35:47.474Z,79.6647
2023-05-05T01:36:55.337Z,79.6556
2023-05-05T01:38:03.402Z,80.2870
2023-05-05T01:39:11.466Z,80.6066
2023-05-05T01:40:19.447Z,80.6724
2023-05-05T01:41:27.416Z,80.8412
2023-05-05T01:42:35.538Z,81.0285
2023-05-05T01:43:43.754Z,81.4610
2023-05-05T01:44:51.792Z,81.6494
2023-05-05T01:45:59.873Z,81.7448
2023-05-05T01:47:07.923Z,81.0249
2023-05-05T01:48:15.939Z,80.8779
2023-05-05T01:49:23.990Z,80.9052
2023-05-05T01:50:32.086Z,80.9344
2023-05-05T01:51:40.117Z,80.9618
2023-05-05T01:52:48.290Z,81.0474
2023-05-05T01:53:56.323Z,80.6402
2023-05-05T01:55:04.168Z,80.7078
2023-05-05T01:56:12.206Z,80.3775
2023-05-05T01:57:20.276Z,79.7268
2023-05-05T01:58:28.472Z,79.5288
2023-05-05T01:59:36.504Z,79.4161
2023-05-05T02:00:44.794Z,79.5248
2023-05-05T02:01:52.644Z,78.9370
2023-05-05T02:03:00.725Z,78.9448
2023-05-05T02:04:08.737Z,78.7383
2023-05-05T02:05:16.948Z,78.3967
2023-05-05T02:06:24.887Z,78.1153
2023-05-05T02:07:32.928Z,78.4823
2023-05-05T02:08:41.232Z,77.8120
2023-05-05T02:09:48.970Z,77.3961
2023-05-05T02:10:57.018Z,77.2360
2023-05-05T02:12:05.103Z,76.6148
2023-05-05T02:13:13.384Z,76.2501
2023-05-05T02:14:21.304Z,75.7824
2023-05-05T02:15:29.426Z,75.9231
2023-05-05T02:16:37.637Z,76.4457
2023-05-05T02:17:45.551Z,75.1512
2023-05-05T02:18:53.562Z,75.0849
2023-05-05T02:20:01.714Z,75.0377
2023-05-05T02:21:09.695Z,74.8547
2023-05-05T02:22:17.720Z,74.3617
2023-05-05T02:23:25.892Z,74.6443
2023-05-05T02:24:33.728Z,74.1146
2023-05-05T02:25:41.806Z,73.9132
2023-05-05T02:26:49.846Z,74.5037
2023-05-05T02:27:58.055Z,74.7326
2023-05-05T02:29:06.070Z,74.6193
2023-05-05T02:30:14.207Z,74.9816
2023-05-05T02:31:22.209Z,75.1215
2023-05-05T02:32:30.464Z,75.7109
2023-05-05T02:33:38.320Z,76.0844
2023-05-05T02:34:46.374Z,76.3106
2023-05-05T02:35:54.480Z,76.7120
2023-05-05T02:37:02.484Z,76.6859
2023-05-05T02:38:10.639Z,76.7557
2023-05-05T02:39:18.484Z,76.9060
2023-05-05T02:40:26.563Z,77.8907
2023-05-05T02:41:34.642Z,78.8332
2023-05-05T02:42:42.709Z,79.9598
2023-05-05T02:43:50.752Z,80.3574
2023-05-05T02:44:58.958Z,80.8258
2023-05-05T02:46:07.058Z,80.9456
2023-05-05T02:47:15.040Z,81.5247
2023-05-05T02:48:23.138Z,81.2139
2023-05-05T02:49:31.294Z,80.8302
2023-05-05T02:50:39.299Z,80.6930
2023-05-05T02:51:47.315Z,81.3140
2023-05-05T02:52:55.364Z,81.4001
2023-05-05T02:54:03.366Z,81.6546
2023-05-05T02:55:11.594Z,81.7824
2023-05-05T02:56:19.452Z,82.4624
2023-05-05T02:57:27.444Z,82.3282
2023-05-05T02:58:35.547Z,82.0179
2023-05-05T02:59:43.756Z,81.7127
2023-05-05T03:00:51.827Z,81.5850
2023-05-05T03:01:59.909Z,81.2302
2023-05-05T03:03:07.918Z,80.7752
2023-05-05T03:04:15.950Z,80.6154
2023-05-05T03:05:23.995Z,81.0992
2023-05-05T03:06:32.121Z,81.3416
2023-05-05T03:07:40.148Z,81.5135
2023-05-05T03:08:48.188Z,82.0128
2023-05-05T03:09:56.272Z,82.1854
2023-05-05T03:11:04.258Z,82.6804
2023-05-05T03:12:12.261Z,83.4765
2023-05-05T03:13:20.356Z,83.0443
2023-05-05T03:14:29.583Z,83.0132
2023-05-05T03:15:41.510Z,82.8987
2023-05-05T03:16:49.560Z,82.4108
2023-05-05T03:17:57.670Z,82.2843
2023-05-05T03:19:05.662Z,82.4488
2023-05-05T03:20:13.703Z,82.6052
2023-05-05T03:21:21.921Z,82.3684
2023-05-05T03:22:29.848Z,81.8930
2023-05-05T03:23:37.843Z,81.1530
2023-05-05T03:24:45.776Z,80.8844
2023-05-05T03:25:53.873Z,81.2458
2023-05-05T03:27:01.964Z,81.4765
2023-05-05T03:28:10.112Z,80.4598
2023-05-05T03:29:18.198Z,79.3424
2023-05-05T03:30:26.285Z,78.3082
2023-05-05T03:31:34.362Z,77.8031
2023-05-05T03:32:42.358Z,77.4896
2023-05-05T03:33:50.438Z,77.1497
2023-05-05T03:34:58.636Z,76.8728
2023-05-05T03:36:06.544Z,77.4417
2023-05-05T03:37:14.800Z,79.8492
2023-05-05T03:38:22.627Z,78.9916
2023-05-05T03:39:30.576Z,77.1108
2023-05-05T03:40:44.127Z,76.9048
2023-05-05T03:41:51.764Z,77.1536
2023-05-05T03:42:59.793Z,77.0793
2023-05-05T03:44:07.855Z,78.6856
2023-05-05T03:45:16.049Z,78.3897
2023-05-05T03:46:23.969Z,77.8948
2023-05-05T03:47:32.005Z,77.6329
2023-05-05T03:48:40.042Z,79.7214
2023-05-05T03:49:48.126Z,81.3891
2023-05-05T03:50:56.154Z,81.7003
2023-05-05T03:52:04.248Z,81.2048
2023-05-05T03:53:12.165Z,80.5635
2023-05-05T03:54:20.206Z,81.4999
2023-05-05T03:55:28.270Z,81.8677
2023-05-05T03:56:36.513Z,82.0653
2023-05-05T03:57:44.526Z,82.3343
2023-05-05T03:58:52.579Z,82.3193
2023-05-05T04:00:00.648Z,81.8385
2023-05-05T04:01:08.697Z,81.6084
2023-05-05T04:02:18.630Z,81.5512
2023-05-05T04:03:29.707Z,81.2261
2023-05-05T04:04:37.697Z,81.1725
2023-05-05T04:05:45.761Z,81.4993
2023-05-05T04:06:53.788Z,81.5083
2023-05-05T04:08:01.794Z,81.4070
2023-05-05T04:09:09.818Z,80.4137
2023-05-05T04:10:18.040Z,79.9408
2023-05-05T04:11:26.141Z,80.3298
2023-05-05T04:12:34.225Z,81.7450
2023-05-05T04:13:42.452Z,83.0677
2023-05-05T04:14:50.314Z,81.5713
2023-05-05T04:15:58.467Z,79.9855
2023-05-05T04:17:06.374Z,79.9348
2023-05-05T04:18:14.465Z,82.3867
2023-05-05T04:19:22.539Z,83.0594
2023-05-05T04:20:30.528Z,83.4474
2023-05-05T04:21:38.564Z,83.1474
2023-05-05T04:22:46.602Z,82.4301
2023-05-05T04:23:54.620Z,82.9151
2023-05-05T04:25:02.768Z,82.8961
2023-05-05T04:26:10.856Z,83.5732
2023-05-05T04:27:18.931Z,83.4477
2023-05-05T04:28:27.064Z,83.7335
2023-05-05T04:29:35.104Z,83.7369
2023-05-05T04:30:43.131Z,83.4872
2023-05-05T04:31:51.249Z,84.0947
2023-05-05T04:32:59.321Z,84.6559
2023-05-05T04:34:07.385Z,84.8461
2023-05-05T04:35:15.341Z,84.4730
2023-05-05T04:36:23.288Z,84.4242
2023-05-05T04:37:31.386Z,83.5309
2023-05-05T04:38:39.407Z,84.1557
2023-05-05T04:39:47.528Z,84.3838
2023-05-05T04:40:55.621Z,84.6906
2023-05-05T04:42:03.683Z,84.2074
2023-05-05T04:43:11.811Z,84.2602
2023-05-05T04:44:19.794Z,84.6532
2023-05-05T04:45:27.825Z,84.7247
2023-05-05T04:46:35.918Z,84.7907
2023-05-05T04:47:44.131Z,84.8087
2023-05-05T04:48:52.123Z,84.7579
2023-05-05T04:50:00.125Z,85.7309
2023-05-05T04:51:08.077Z,85.3858
2023-05-05T04:52:16.140Z,85.2310
2023-05-05T04:53:24.212Z,83.9410
2023-05-05T04:54:32.337Z,84.0851
2023-05-05T04:55:40.357Z,83.3591
2023-05-05T04:56:48.403Z,83.7518
2023-05-05T04:57:56.558Z,83.6989
2023-05-05T04:59:04.548Z,84.0139
2023-05-05T05:00:12.576Z,83.1155
2023-05-05T05:01:20.664Z,82.9729
2023-05-05T05:02:28.774Z,82.4987
2023-05-05T05:03:36.864Z,82.1300
2023-05-05T05:04:44.865Z,81.8864
2023-05-05T05:05:52.967Z,81.4755
2023-05-05T05:07:00.855Z,81.7591
2023-05-05T05:08:08.974Z,83.6868
2023-05-05T05:09:17.157Z,83.5783
2023-05-05T05:10:25.186Z,83.5277
2023-05-05T05:11:33.237Z,82.9594
2023-05-05T05:12:41.288Z,82.4409
2023-05-05T05:13:49.386Z,82.4070
2023-05-05T05:14:57.512Z,82.1381
2023-05-05T05:16:05.582Z,82.2702
2023-05-05T05:17:13.456Z,82.0555
2023-05-05T05:18:21.596Z,82.1298
2023-05-05T05:19:29.693Z,83.2735
2023-05-05T05:20:37.546Z,83.9891
2023-05-05T05:21:45.628Z,84.8242
2023-05-05T05:22:53.711Z,85.5394
2023-05-05T05:24:01.789Z,85.4487
2023-05-05T05:25:09.913Z,85.0637
2023-05-05T05:26:17.974Z,84.3120
2023-05-05T05:27:26.010Z,83.5261
2023-05-05T05:28:34.209Z,83.9072
2023-05-05T05:29:42.187Z,83.1073
2023-05-05T05:30:50.249Z,82.8428
2023-05-05T05:31:58.392Z,82.7881
2023-05-05T05:33:06.437Z,82.3795
2023-05-05T05:34:14.463Z,82.5256
2023-05-05T05:35:22.405Z,83.3586
2023-05-05T05:36:30.472Z,84.0524
2023-05-05T05:37:38.573Z,84.6170
2023-05-05T05:38:46.605Z,84.8614
2023-05-05T05:39:54.710Z,84.2585
2023-05-05T05:41:02.854Z,84.5181
2023-05-05T05:42:10.841Z,84.5006
2023-05-05T05:43:18.983Z,83.7068
2023-05-05T05:44:27.001Z,83.6250
2023-05-05T05:45:35.228Z,83.6322
2023-05-05T05:46:43.151Z,82.9898
2023-05-05T05:47:51.363Z,82.5427
2023-05-05T05:48:59.327Z,82.7355
2023-05-05T05:50:07.438Z,82.5362
2023-05-05T05:51:15.222Z,82.0944
2023-05-05T05:52:23.265Z,82.2157
2023-05-05T05:53:31.517Z,81.8410
2023-05-05T05:54:39.380Z,81.5182
2023-05-05T05:55:47.719Z,80.1461
2023-05-05T05:56:55.580Z,80.1483
2023-05-05T05:58:03.720Z,79.9751
2023-05-05T05:59:11.786Z,81.1524
2023-05-05T06:00:19.763Z,81.0682
2023-05-05T06:01:27.840Z,80.2613
2023-05-05T06:02:35.934Z,80.7458
2023-05-05T06:03:44.046Z,80.6109
2023-05-05T06:04:51.927Z,80.4693
2023-05-05T06:05:59.976Z,79.9252
2023-05-05T06:07:08.006Z,79.5400
2023-05-05T06:08:16.171Z,79.4908
2023-05-05T06:09:24.330Z,79.7705
2023-05-05T06:10:32.524Z,79.3928
2023-05-05T06:11:45.258Z,79.2126
2023-05-05T06:12:53.652Z,79.0981
2023-05-05T06:14:01.414Z,78.3533
2023-05-05T06:15:09.397Z,78.7166
2023-05-05T06:16:17.538Z,79.5461
2023-05-05T06:17:25.497Z,78.7392
2023-05-05T06:18:33.547Z,78.4596
2023-05-05T06:19:41.535Z,77.5779
2023-05-05T06:20:49.609Z,77.0132
2023-05-05T06:21:57.908Z,76.4193
2023-05-05T06:23:05.872Z,76.2631
2023-05-05T06:24:13.912Z,75.6328
2023-05-05T06:25:21.981Z,75.2360
2023-05-05T06:26:30.003Z,75.4741
2023-05-05T06:27:38.022Z,75.6686
2023-05-05T06:28:46.112Z,75.3910
2023-05-05T06:29:54.250Z,74.9457
2023-05-05T06:31:02.303Z,75.0360
2023-05-05T06:32:10.286Z,74.6329
2023-05-05T06:33:18.244Z,73.4035
2023-05-05T06:34:26.295Z,73.5328
2023-05-05T06:35:34.388Z,74.1742
2023-05-05T06:36:42.466Z,73.8794
2023-05-05T06:37:50.607Z,74.5594
2023-05-05T06:38:58.618Z,73.9320
2023-05-05T06:40:06.861Z,73.5553
2023-05-05T06:41:14.826Z,72.6885
2023-05-05T06:42:22.827Z,73.4625
2023-05-05T06:43:30.938Z,73.5858
2023-05-05T06:44:38.906Z,71.9453
2023-05-05T06:45:47.212Z,71.1782
2023-05-05T06:46:55.088Z,71.5683
2023-05-05T06:48:03.059Z,71.6430
2023-05-05T06:49:11.050Z,70.1963
2023-05-05T06:50:19.103Z,70.7511
2023-05-05T06:51:27.364Z,71.5485
2023-05-05T06:52:35.412Z,71.6868
2023-05-05T06:53:43.405Z,70.5591
2023-05-05T06:54:51.507Z,70.0468
2023-05-05T06:55:59.518Z,70.4326
2023-05-05T06:57:07.565Z,70.1893
2023-05-05T06:58:15.614Z,68.9523
2023-05-05T06:59:23.681Z,68.7679
2023-05-05T07:00:31.736Z,67.8515
2023-05-05T07:01:39.880Z,68.9016
2023-05-05T07:02:47.771Z,71.4424
2023-05-05T07:03:55.877Z,72.4072
2023-05-05T07:05:03.896Z,67.1385
2023-05-05T07:06:12.009Z,67.1763
2023-05-05T07:07:20.147Z,67.4673
2023-05-05T07:08:28.190Z,67.6235
2023-05-05T07:09:36.304Z,68.6658
2023-05-05T07:10:44.296Z,67.0648
2023-05-05T07:11:52.397Z,66.1518
2023-05-05T07:13:00.444Z,67.0952
2023-05-05T07:14:08.438Z,68.4534
2023-05-05T07:15:27.614Z,67.1970
2023-05-05T07:16:29.372Z,65.7291
2023-05-05T07:17:37.383Z,65.8404
2023-05-05T07:18:45.432Z,67.0155
2023-05-05T07:19:53.753Z,67.0380
2023-05-05T07:21:01.630Z,67.0611
2023-05-05T07:22:09.637Z,68.5131
2023-05-05T07:23:17.849Z,67.1127
2023-05-05T07:24:25.803Z,65.6854
2023-05-05T07:25:33.948Z,65.8623
2023-05-05T07:26:42.004Z,65.7710
2023-05-05T07:27:50.063Z,65.6245
2023-05-05T07:28:58.082Z,65.1038
2023-05-05T07:30:10.057Z,64.8852
2023-05-05T07:31:18.927Z,65.1151
2023-05-05T07:32:27.096Z,65.1874
2023-05-05T07:33:35.074Z,66.3083
2023-05-05T07:34:43.271Z,66.5165
2023-05-05T07:35:51.399Z,67.2038
2023-05-05T07:36:59.410Z,68.4713
2023-05-05T07:38:08.719Z,65.4406
2023-05-05T07:39:20.332Z,66.2044
2023-05-05T07:40:28.371Z,65.6708
2023-05-05T07:41:36.462Z,66.7600
2023-05-05T07:42:44.626Z,67.1166
2023-05-05T07:43:52.677Z,65.8397
2023-05-05T07:45:00.470Z,66.8462
2023-05-05T07:46:08.548Z,67.2326
2023-05-05T07:47:16.629Z,67.0284
2023-05-05T07:48:24.769Z,66.7669
2023-05-05T07:49:32.874Z,66.2732
2023-05-05T07:50:40.905Z,67.0321
2023-05-05T07:51:49.127Z,66.2783
2023-05-05T07:53:06.250Z,68.1895
2023-05-05T07:54:09.916Z,68.5612
2023-05-05T07:55:18.018Z,66.7346
2023-05-05T07:56:26.068Z,66.1493
2023-05-05T07:57:34.239Z,66.8140
2023-05-05T07:58:42.035Z,67.7396
2023-05-05T07:59:50.067Z,67.7893
2023-05-05T08:00:58.141Z,67.2526
2023-05-05T08:02:06.345Z,66.9290
2023-05-05T08:03:14.441Z,66.3235
2023-05-05T08:04:22.428Z,66.4624
2023-05-05T08:05:30.502Z,65.5380
2023-05-05T08:06:38.506Z,66.1282
2023-05-05T08:07:46.800Z,66.7544
2023-05-05T08:08:54.665Z,67.4126
2023-05-05T08:10:02.718Z,65.3246
2023-05-05T08:11:10.834Z,65.5136
2023-05-05T08:12:18.868Z,65.7994
2023-05-05T08:13:26.809Z,66.4747
2023-05-05T08:14:34.840Z,64.5241
2023-05-05T08:15:42.910Z,64.3625
2023-05-05T08:16:51.064Z,63.9142
2023-05-05T08:17:59.190Z,61.9281
2023-05-05T08:19:17.670Z,61.1959
2023-05-05T08:20:20.182Z,60.9590
2023-05-05T08:21:28.164Z,60.6030
2023-05-05T08:22:36.282Z,59.5873
2023-05-05T08:23:44.300Z,60.9012
2023-05-05T08:24:52.634Z,59.0977
2023-05-05T08:26:00.285Z,57.4306
2023-05-05T08:27:08.339Z,62.9038
2023-05-05T08:28:16.440Z,59.9336
2023-05-05T08:29:24.641Z,58.8992
2023-05-05T08:30:32.927Z,57.7543
2023-05-05T08:31:40.751Z,56.4426
2023-05-05T08:32:48.910Z,55.2934
2023-05-05T08:33:56.958Z,54.6162
2023-05-05T08:35:04.927Z,55.7971
2023-05-05T08:36:12.932Z,56.7214
2023-05-05T08:37:21.071Z,56.7507
2023-05-05T08:38:29.066Z,55.9660
2023-05-05T08:39:37.168Z,57.7720
2023-05-05T08:40:45.049Z,57.8475
2023-05-05T08:41:53.152Z,58.5955
2023-05-05T08:43:01.203Z,60.2801
2023-05-05T08:44:09.479Z,60.8674
2023-05-05T08:45:17.543Z,62.4805
2023-05-05T08:46:25.482Z,60.2638
2023-05-05T08:47:33.555Z,61.9324
2023-05-05T08:48:41.741Z,61.5768
2023-05-05T08:49:49.715Z,63.4496
2023-05-05T08:50:59.542Z,60.4673
2023-05-05T08:52:10.647Z,59.5278
2023-05-05T08:53:18.668Z,60.5984
2023-05-05T08:54:26.637Z,59.3929
2023-05-05T08:55:34.690Z,60.1301
2023-05-05T08:56:42.751Z,61.3282
2023-05-05T08:57:51.110Z,60.1338
2023-05-05T08:58:58.965Z,63.5644
2023-05-05T09:00:07.008Z,62.8367
2023-05-05T09:01:15.159Z,59.3729
2023-05-05T09:02:23.209Z,62.3255
2023-05-05T09:03:31.190Z,60.5160
2023-05-05T09:04:39.282Z,57.9063
2023-05-05T09:05:47.277Z,60.0245
2023-05-05T09:06:55.308Z,60.3014
2023-05-05T09:08:03.584Z,60.2709
2023-05-05T09:09:11.406Z,62.6064
2023-05-05T09:10:19.452Z,63.4630
2023-05-05T09:11:27.531Z,59.5029
2023-05-05T09:12:35.664Z,62.5033
2023-05-05T09:13:43.892Z,60.1451
2023-05-05T09:14:51.770Z,59.7619
2023-05-05T09:15:59.894Z,61.2991
2023-05-05T09:17:07.981Z,63.4965
2023-05-05T09:18:15.956Z,64.6179
2023-05-05T09:19:23.974Z,59.9135
2023-05-05T09:20:32.234Z,58.8120
2023-05-05T09:21:40.117Z,61.1427
2023-05-05T09:22:48.174Z,61.6533
2023-05-05T09:23:58.535Z,60.4047
2023-05-05T09:25:09.251Z,64.3822
2023-05-05T09:26:17.214Z,63.3567
2023-05-05T09:27:25.264Z,60.6264
2023-05-05T09:28:33.264Z,63.1398
2023-05-05T09:29:41.493Z,61.3729
2023-05-05T09:30:49.493Z,59.3719
2023-05-05T09:31:57.533Z,58.8437
2023-05-05T09:33:05.667Z,58.3265
2023-05-05T09:34:13.630Z,59.8246
2023-05-05T09:35:21.727Z,59.4174
2023-05-05T09:36:29.700Z,58.7623
2023-05-05T09:37:37.736Z,57.0667
2023-05-05T09:38:45.819Z,58.5724
2023-05-05T09:39:53.929Z,57.7228
2023-05-05T09:41:02.136Z,58.0853
2023-05-05T09:42:10.095Z,59.1559
2023-05-05T09:43:18.163Z,56.6251
2023-05-05T09:44:26.358Z,56.1852
2023-05-05T09:45:34.286Z,58.0599
2023-05-05T09:46:42.515Z,56.9991
2023-05-05T09:47:50.652Z,56.1021
2023-05-05T09:48:58.503Z,55.2152
2023-05-05T09:50:06.696Z,56.4946
2023-05-05T09:51:14.449Z,55.2639
2023-05-05T09:52:22.546Z,57.3763
2023-05-05T09:53:30.556Z,58.4937
2023-05-05T09:54:38.790Z,58.1498
2023-05-05T09:55:46.832Z,59.9788
2023-05-05T09:56:54.827Z,59.6537
2023-05-05T09:58:02.985Z,57.9826
2023-05-05T09:59:11.098Z,57.3920
2023-05-05T10:00:18.923Z,58.1395
2023-05-05T10:01:27.162Z,56.4424
2023-05-05T10:02:35.146Z,56.3541
2023-05-05T10:03:43.265Z,56.3580
2023-05-05T10:04:51.259Z,52.9215
2023-05-05T10:05:59.208Z,50.9882
2023-05-05T10:07:07.263Z,49.3064
2023-05-05T10:08:15.342Z,50.3879
2023-05-05T10:09:23.503Z,51.8010
2023-05-05T10:10:31.610Z,50.1628
2023-05-05T10:11:39.552Z,51.4129
2023-05-05T10:12:47.782Z,52.4429
2023-05-05T10:13:55.773Z,47.6436
2023-05-05T10:15:03.809Z,45.4687
2023-05-05T10:16:12.022Z,50.6493
2023-05-05T10:17:19.888Z,45.8402
2023-05-05T10:18:27.967Z,44.8532
2023-05-05T10:19:36.006Z,44.9772
2023-05-05T10:20:44.024Z,45.6297
2023-05-05T10:21:52.080Z,47.0442
2023-05-05T10:23:00.148Z,46.1175
2023-05-05T10:24:08.245Z,45.0268
2023-05-05T10:25:16.308Z,44.2895
2023-05-05T10:26:24.466Z,44.1070
2023-05-05T10:27:32.524Z,45.5651
2023-05-05T10:28:40.540Z,46.1453
2023-05-05T10:29:48.633Z,44.8404
2023-05-05T10:30:56.704Z,44.1995
2023-05-05T10:32:21.456Z,45.7950
2023-05-05T10:33:30.213Z,46.1531
2023-05-05T10:34:30.491Z,48.4541
2023-05-05T10:35:38.660Z,48.7430
2023-05-05T10:36:46.787Z,48.7774
2023-05-05T10:37:54.826Z,50.7959
2023-05-05T10:39:02.826Z,46.7214
2023-05-05T10:40:11.241Z,49.3123
2023-05-05T10:41:18.979Z,47.5155
2023-05-05T10:42:27.082Z,51.3649
2023-05-05T10:43:35.116Z,47.6466
2023-05-05T10:44:43.116Z,48.3521
2023-05-05T10:45:51.243Z,51.0623
2023-05-05T10:46:59.172Z,46.1842
2023-05-05T10:48:07.247Z,47.2775
2023-05-05T10:49:15.277Z,45.6599
2023-05-05T10:50:23.390Z,43.6736
2023-05-05T10:51:40.094Z,42.9632
2023-05-05T10:52:44.517Z,46.8045
2023-05-05T10:53:52.522Z,47.3166
2023-05-05T10:55:00.509Z,43.2634
2023-05-05T10:56:08.722Z,38.9008
2023-05-05T10:57:16.735Z,38.8034
2023-05-05T10:58:24.723Z,40.7857
2023-05-05T10:59:32.845Z,42.2104
2023-05-05T11:00:40.814Z,42.9881
2023-05-05T11:01:48.838Z,43.3582
2023-05-05T11:02:56.999Z,40.7176
2023-05-05T11:04:05.105Z,41.9235
2023-05-05T11:05:13.102Z,42.1095
2023-05-05T11:06:21.119Z,42.8560
2023-05-05T11:07:29.309Z,43.9161
2023-05-05T11:08:37.557Z,42.4188
2023-05-05T11:09:45.440Z,43.4002
2023-05-05T11:10:53.494Z,38.9463
2023-05-05T11:12:01.596Z,42.9823
2023-05-05T11:13:09.590Z,42.8338
2023-05-05T11:14:17.640Z,44.2424
2023-05-05T11:15:25.633Z,43.4485
2023-05-05T11:16:33.726Z,43.3242
2023-05-05T11:17:41.832Z,45.6786
2023-05-05T11:18:49.968Z,46.0328
2023-05-05T11:19:57.984Z,52.3166
2023-05-05T11:21:06.003Z,48.2794
2023-05-05T11:22:14.106Z,44.0157
2023-05-05T11:23:22.216Z,44.0715
2023-05-05T11:24:30.274Z,44.6480
2023-05-05T11:25:38.404Z,48.5560
2023-05-05T11:26:46.361Z,46.1232
2023-05-05T11:27:54.444Z,45.3103
2023-05-05T11:29:02.501Z,45.2448
2023-05-05T11:30:10.705Z,45.1997
2023-05-05T11:31:18.605Z,43.8564
2023-05-05T11:32:26.633Z,45.3569
2023-05-05T11:33:34.785Z,47.3311
2023-05-05T11:34:42.772Z,48.1415
2023-05-05T11:35:50.847Z,49.4700
2023-05-05T11:36:58.948Z,47.0762
2023-05-05T11:38:07.036Z,46.4161
2023-05-05T11:39:15.049Z,48.7305
2023-05-05T11:40:23.129Z,48.7930
2023-05-05T11:41:31.230Z,51.3220
2023-05-05T11:42:39.290Z,50.1751
2023-05-05T11:43:47.274Z,49.9909
2023-05-05T11:44:55.301Z,46.3402
2023-05-05T11:46:03.396Z,46.9946
2023-05-05T11:47:11.408Z,43.2383
2023-05-05T11:48:19.770Z,44.5697
2023-05-05T11:49:27.691Z,44.9551
2023-05-05T11:50:35.855Z,47.2318
2023-05-05T11:51:43.787Z,42.8969
2023-05-05T11:52:51.848Z,45.6382
2023-05-05T11:53:59.904Z,44.2366
2023-05-05T11:55:07.972Z,44.3730
2023-05-05T11:56:16.102Z,42.9907
2023-05-05T11:57:24.245Z,42.1212
2023-05-05T11:58:32.205Z,43.3499
2023-05-05T11:59:40.086Z,40.9949
2023-05-05T12:00:48.147Z,41.4350
2023-05-05T12:01:56.213Z,45.3663
2023-05-05T12:03:04.522Z,45.2912
2023-05-05T12:04:12.861Z,46.6175
2023-05-05T12:05:20.546Z,45.4833
2023-05-05T12:06:28.610Z,44.1833
2023-05-05T12:07:36.631Z,43.9516
2023-05-05T12:08:44.777Z,44.9718
2023-05-05T12:09:52.791Z,46.9172
2023-05-05T12:11:01.009Z,47.9648
2023-05-05T12:12:08.974Z,44.8800
2023-05-05T12:13:17.131Z,40.9393
2023-05-05T12:14:24.980Z,39.5717
2023-05-05T12:15:32.996Z,37.4956
2023-05-05T12:16:41.271Z,41.6609
2023-05-05T12:17:49.280Z,40.2116
2023-05-05T12:18:57.408Z,43.3492
2023-05-05T12:20:05.592Z,42.6633
2023-05-05T12:21:13.482Z,39.4252
2023-05-05T12:22:21.539Z,39.9291
2023-05-05T12:23:29.641Z,39.6399
2023-05-05T12:24:37.624Z,41.8087
2023-05-05T12:25:45.721Z,43.0809
2023-05-05T12:26:53.826Z,41.0264
2023-05-05T12:28:02.036Z,44.0577
2023-05-05T12:29:09.844Z,42.8320
2023-05-05T12:30:17.929Z,37.6787
2023-05-05T12:31:25.953Z,39.5006
2023-05-05T12:32:34.259Z,39.8208
2023-05-05T12:33:42.240Z,42.4530
2023-05-05T12:34:50.308Z,41.4294
2023-05-05T12:35:58.480Z,40.4455
2023-05-05T12:37:06.362Z,34.2735
2023-05-05T12:38:14.466Z,34.0118
2023-05-05T12:39:22.565Z,39.4020
2023-05-05T12:40:30.601Z,37.3347
2023-05-05T12:41:38.668Z,37.0495
2023-05-05T12:42:46.763Z,39.2343
2023-05-05T12:43:54.756Z,42.4832
2023-05-05T12:45:02.751Z,39.3491
2023-05-05T12:46:10.928Z,41.4545
2023-05-05T12:47:19.004Z,39.2022
2023-05-05T12:48:27.111Z,36.2694
2023-05-05T12:49:35.064Z,34.2842
2023-05-05T12:50:43.251Z,32.3416
2023-05-05T12:51:51.241Z,36.0666
2023-05-05T12:52:59.358Z,34.7600
2023-05-05T12:54:07.446Z,32.4587
2023-05-05T12:55:15.567Z,32.0195
2023-05-05T12:56:23.559Z,34.4950
2023-05-05T12:57:31.562Z,33.6906
2023-05-05T12:58:39.558Z,32.8442
2023-05-05T12:59:47.675Z,33.4307
2023-05-05T13:00:55.816Z,31.3149
2023-05-05T13:02:04.160Z,32.8881
2023-05-05T13:03:12.024Z,35.4456
2023-05-05T13:04:20.042Z,33.6731
2023-05-05T13:05:28.151Z,37.1573
2023-05-05T13:06:36.248Z,34.3150
2023-05-05T13:07:44.208Z,33.2919
2023-05-05T13:08:52.305Z,32.0835
2023-05-05T13:10:00.529Z,33.3201
2023-05-05T13:11:08.405Z,32.9559
2023-05-05T13:12:16.526Z,31.2492
2023-05-05T13:13:24.449Z,31.0342
2023-05-05T13:14:32.674Z,32.7846
2023-05-05T13:15:40.653Z,33.6490
2023-05-05T13:16:48.784Z,34.2347
2023-05-05T13:17:57.100Z,33.8171
2023-05-05T13:19:04.896Z,31.2262
2023-05-05T13:20:13.054Z,29.8180
2023-05-05T13:21:21.060Z,34.8425
2023-05-05T13:22:29.164Z,33.0926
2023-05-05T13:23:37.190Z,32.9574
2023-05-05T13:24:52.479Z,35.1285
2023-05-05T13:25:58.101Z,32.5228
2023-05-05T13:27:06.162Z,37.9286
2023-05-05T13:28:14.201Z,37.4030
2023-05-05T13:29:24.667Z,40.0090
2023-05-05T13:30:35.326Z,40.6056
2023-05-05T13:31:43.656Z,37.2854
2023-05-05T13:32:51.599Z,39.1658
2023-05-05T13:33:59.540Z,38.2337
2023-05-05T13:35:07.894Z,36.0119
2023-05-05T13:36:15.840Z,36.1766
2023-05-05T13:37:23.740Z,39.4439
2023-05-05T13:38:31.835Z,38.1503
2023-05-05T13:39:39.752Z,38.3674
2023-05-05T13:40:47.830Z,35.9018
2023-05-05T13:41:55.875Z,36.9558
2023-05-05T13:43:04.052Z,39.5709
2023-05-05T13:44:12.149Z,40.5677